createdAt,value
2022-09-04T00:00:23.214Z,94.80
2022-09-04T00:03:28.718Z,94.80
2022-09-04T00:05:58.541Z,94.80
2022-09-04T00:08:31.187Z,94.90
2022-09-04T00:11:03.718Z,95.20
2022-09-04T00:13:44.079Z,95.30
2022-09-04T00:16:43.038Z,95.10
2022-09-04T00:19:23.427Z,94.90
2022-09-04T00:22:00.345Z,94.60
2022-09-04T00:24:36.536Z,94.30
2022-09-04T00:27:26.456Z,94.60
2022-09-04T00:30:07.970Z,94.30
2022-09-04T00:32:55.936Z,94.00
2022-09-04T00:35:37.922Z,94.50
2022-09-04T00:38:09.073Z,94.10
2022-09-04T00:40:46.467Z,94.30
2022-09-04T00:43:50.653Z,94.40
2022-09-04T00:46:32.037Z,94.40
2022-09-04T00:49:26.112Z,94.30
2022-09-04T00:52:36.261Z,94.30
2022-09-04T00:55:36.543Z,94.40
2022-09-04T00:58:33.310Z,94.50
2022-09-04T01:01:00.430Z,94.60
2022-09-04T01:04:05.240Z,94.60
2022-09-04T01:06:39.628Z,94.50
2022-09-04T01:09:09.082Z,94.50
2022-09-04T01:12:06.617Z,94.50
2022-09-04T01:14:44.324Z,94.90
2022-09-04T01:17:38.532Z,95.50
2022-09-04T01:20:38.109Z,95.40
2022-09-04T01:23:18.731Z,95.40
2022-09-04T01:26:24.087Z,95.40
2022-09-04T01:29:01.635Z,95.60
2022-09-04T01:31:54.523Z,95.80
2022-09-04T01:34:45.296Z,95.80
2022-09-04T01:37:35.872Z,95.70
2022-09-04T01:40:10.111Z,95.50
2022-09-04T01:42:47.761Z,95.00
2022-09-04T01:45:33.553Z,95.00
2022-09-04T01:48:04.093Z,95.00
2022-09-04T01:50:33.023Z,94.90
2022-09-04T01:53:11.747Z,95.00
2022-09-04T01:55:58.192Z,94.80
2022-09-04T01:58:43.515Z,94.80
2022-09-04T02:01:22.395Z,95.00
2022-09-04T02:03:56.160Z,95.00
2022-09-04T02:06:33.097Z,95.00
2022-09-04T02:09:02.589Z,94.90
2022-09-04T02:11:31.247Z,94.50
2022-09-04T02:14:47.682Z,94.10
2022-09-04T02:17:28.052Z,93.90
2022-09-04T02:20:02.886Z,93.90
2022-09-04T02:22:54.103Z,94.00
2022-09-04T02:25:41.285Z,94.40
2022-09-04T02:28:21.576Z,94.40
2022-09-04T02:31:09.906Z,94.80
2022-09-04T02:34:10.055Z,94.70
2022-09-04T02:36:50.745Z,94.80
2022-09-04T02:39:17.450Z,94.70
2022-09-04T02:42:03.799Z,94.50
2022-09-04T02:44:38.878Z,94.50
2022-09-04T02:47:38.874Z,94.70
2022-09-04T02:50:31.727Z,94.80
2022-09-04T02:53:30.359Z,94.90
2022-09-04T02:56:17.709Z,94.90
2022-09-04T02:59:14.288Z,94.90
2022-09-04T03:02:04.039Z,94.80
2022-09-04T03:04:50.057Z,94.60
2022-09-04T03:07:37.223Z,94.40
2022-09-04T03:10:20.004Z,94.40
2022-09-04T03:13:10.879Z,94.30
2022-09-04T03:15:43.583Z,94.10
2022-09-04T03:18:39.580Z,93.80
2022-09-04T03:21:19.292Z,93.30
2022-09-04T03:23:45.981Z,92.60
2022-09-04T03:26:19.625Z,92.90
2022-09-04T03:29:14.360Z,92.90
2022-09-04T03:32:15.537Z,92.90
2022-09-04T03:34:59.922Z,93.00
2022-09-04T03:37:51.014Z,93.10
2022-09-04T03:40:23.514Z,92.50
2022-09-04T03:43:12.046Z,92.50
2022-09-04T03:45:56.524Z,92.50
2022-09-04T03:48:43.751Z,92.40
2022-09-04T03:51:25.738Z,92.10
2022-09-04T03:54:10.375Z,92.50
2022-09-04T03:57:00.326Z,92.80
2022-09-04T03:59:56.899Z,93.30
2022-09-04T04:02:26.575Z,93.50
2022-09-04T04:05:22.118Z,93.60
2022-09-04T04:07:58.027Z,93.80
2022-09-04T04:11:03.302Z,93.80
2022-09-04T04:13:59.025Z,93.70
2022-09-04T04:16:40.581Z,93.70
2022-09-04T04:19:39.464Z,93.80
2022-09-04T04:22:21.322Z,93.90
2022-09-04T04:25:39.177Z,93.90
2022-09-04T04:28:34.247Z,93.80
2022-09-04T04:31:37.930Z,94.10
2022-09-04T04:34:16.054Z,94.00
2022-09-04T04:37:00.728Z,93.90
2022-09-04T04:39:37.262Z,94.00
2022-09-04T04:42:15.327Z,93.90
2022-09-04T04:45:09.735Z,93.90
2022-09-04T04:48:20.412Z,94.00
2022-09-04T04:51:08.926Z,93.60
2022-09-04T04:53:54.156Z,93.50
2022-09-04T04:56:34.008Z,93.40
2022-09-04T04:59:34.839Z,93.10
2022-09-04T05:02:28.836Z,92.90
2022-09-04T05:05:02.781Z,92.80
2022-09-04T05:07:42.099Z,93.00
2022-09-04T05:10:30.373Z,93.00
2022-09-04T05:13:34.542Z,92.60
2022-09-04T05:16:09.360Z,92.20
2022-09-04T05:18:48.688Z,92.00
2022-09-04T05:21:27.427Z,91.90
2022-09-04T05:23:58.890Z,92.20
2022-09-04T05:26:40.378Z,92.40
2022-09-04T05:29:28.137Z,92.60
2022-09-04T05:32:14.070Z,92.30
2022-09-04T05:34:56.012Z,92.40
2022-09-04T05:37:42.805Z,92.50
2022-09-04T05:40:30.803Z,92.50
2022-09-04T05:43:14.278Z,91.80
2022-09-04T05:45:57.788Z,91.90
2022-09-04T05:48:48.421Z,92.10
2022-09-04T05:52:00.773Z,91.50
2022-09-04T05:54:44.368Z,90.80
2022-09-04T05:57:32.484Z,90.40
2022-09-04T06:00:07.252Z,90.10
2022-09-04T06:02:40.154Z,89.80
2022-09-04T06:05:30.781Z,89.20
2022-09-04T06:08:15.308Z,88.00
2022-09-04T06:10:53.856Z,85.90
2022-09-04T06:13:38.719Z,84.20
2022-09-04T06:16:36.403Z,82.30
2022-09-04T06:19:08.895Z,79.90
2022-09-04T06:21:53.608Z,79.60
2022-09-04T06:24:20.316Z,79.00
2022-09-04T06:27:24.482Z,73.70
2022-09-04T06:30:02.104Z,70.10
2022-09-04T06:33:03.562Z,69.40
2022-09-04T06:35:42.642Z,68.90
2022-09-04T06:38:32.777Z,67.90
2022-09-04T06:41:18.512Z,66.90
2022-09-04T06:43:48.753Z,65.30
2022-09-04T06:46:27.942Z,64.80
2022-09-04T06:49:25.290Z,60.20
2022-09-04T06:52:07.621Z,59.50
2022-09-04T06:54:55.277Z,58.80
2022-09-04T06:57:35.371Z,56.70
2022-09-04T07:00:02.118Z,55.50
2022-09-04T07:02:58.344Z,55.10
2022-09-04T07:05:45.243Z,54.40
2022-09-04T07:08:24.052Z,53.40
2022-09-04T07:11:33.663Z,51.30
2022-09-04T07:14:29.637Z,52.20
2022-09-04T07:17:36.868Z,51.10
2022-09-04T07:20:15.720Z,50.60
2022-09-04T07:23:22.638Z,50.90
2022-09-04T07:26:15.581Z,51.00
2022-09-04T07:29:07.933Z,48.90
2022-09-04T07:31:38.984Z,49.10
2022-09-04T07:34:21.373Z,49.30
2022-09-04T07:37:04.196Z,47.60
2022-09-04T07:39:38.551Z,47.50
2022-09-04T07:42:15.781Z,47.50
2022-09-04T07:44:48.029Z,47.20
2022-09-04T07:47:30.416Z,46.80
2022-09-04T07:50:18.763Z,46.10
2022-09-04T07:52:50.256Z,45.30
2022-09-04T07:55:27.375Z,45.50
2022-09-04T07:58:19.841Z,45.50
2022-09-04T08:01:13.355Z,43.70
2022-09-04T08:03:57.565Z,44.10
2022-09-04T08:06:37.787Z,43.70
2022-09-04T08:09:28.435Z,43.20
2022-09-04T08:12:04.940Z,43.10
2022-09-04T08:14:45.949Z,43.10
2022-09-04T08:17:24.531Z,42.00
2022-09-04T08:20:35.834Z,41.60
2022-09-04T08:23:12.425Z,40.90
2022-09-04T08:25:53.864Z,41.80
2022-09-04T08:28:33.329Z,41.20
2022-09-04T08:31:14.490Z,41.10
2022-09-04T08:34:25.162Z,39.70
2022-09-04T08:37:20.917Z,39.20
2022-09-04T08:40:03.319Z,39.40
2022-09-04T08:43:04.103Z,38.70
2022-09-04T08:45:55.426Z,38.20
2022-09-04T08:48:47.176Z,38.20
2022-09-04T08:51:33.858Z,38.70
2022-09-04T08:54:16.789Z,37.30
2022-09-04T08:57:08.387Z,37.30
2022-09-04T09:00:02.630Z,37.20
2022-09-04T09:03:07.333Z,36.30
2022-09-04T09:06:06.800Z,35.80
2022-09-04T09:08:55.323Z,35.70
2022-09-04T09:11:31.315Z,34.90
2022-09-04T09:14:28.794Z,34.90
2022-09-04T09:17:12.586Z,34.80
2022-09-04T09:19:39.977Z,34.90
2022-09-04T09:22:10.527Z,34.70
2022-09-04T09:25:00.555Z,34.60
2022-09-04T09:27:44.889Z,33.80
2022-09-04T09:30:24.583Z,33.70
2022-09-04T09:33:30.197Z,34.70
2022-09-04T09:36:16.163Z,34.60
2022-09-04T09:38:53.875Z,34.40
2022-09-04T09:41:32.997Z,35.30
2022-09-04T09:44:29.455Z,34.10
2022-09-04T09:47:09.285Z,33.20
2022-09-04T09:50:03.637Z,31.30
2022-09-04T09:52:58.381Z,30.90
2022-09-04T09:56:07.065Z,31.70
2022-09-04T09:58:55.196Z,32.50
2022-09-04T10:01:24.753Z,31.80
2022-09-04T10:04:16.144Z,32.50
2022-09-04T10:07:11.958Z,32.20
2022-09-04T10:10:06.511Z,31.10
2022-09-04T10:13:01.761Z,30.60
2022-09-04T10:15:40.283Z,31.10
2022-09-04T10:18:35.199Z,29.80
2022-09-04T10:21:50.939Z,29.80
2022-09-04T10:24:36.600Z,30.10
2022-09-04T10:27:43.151Z,29.30
2022-09-04T10:30:18.588Z,29.00
2022-09-04T10:32:57.899Z,29.70
2022-09-04T10:35:41.593Z,29.50
2022-09-04T10:38:21.939Z,30.00
2022-09-04T10:41:10.453Z,30.90
2022-09-04T10:43:57.897Z,31.60
2022-09-04T10:46:40.381Z,31.50
2022-09-04T10:49:41.352Z,32.50
2022-09-04T10:52:26.624Z,32.10
2022-09-04T10:55:31.475Z,32.20
2022-09-04T10:58:10.615Z,31.90
2022-09-04T11:00:59.930Z,33.40
2022-09-04T11:03:56.038Z,32.90
2022-09-04T11:06:37.680Z,33.50
2022-09-04T11:09:44.969Z,33.10
2022-09-04T11:12:19.412Z,32.70
2022-09-04T11:14:52.173Z,33.20
2022-09-04T11:17:46.538Z,32.70
2022-09-04T11:20:32.499Z,31.70
2022-09-04T11:23:32.164Z,29.30
2022-09-04T11:26:17.403Z,31.00
2022-09-04T11:28:56.944Z,30.90
2022-09-04T11:32:00.078Z,31.90
2022-09-04T11:35:01.470Z,32.20
2022-09-04T11:37:58.611Z,32.30
2022-09-04T11:40:59.357Z,33.00
2022-09-04T11:43:41.955Z,33.10
2022-09-04T11:46:43.843Z,33.80
2022-09-04T11:49:45.581Z,34.00
2022-09-04T11:52:26.438Z,31.60
2022-09-04T11:55:08.515Z,31.00
2022-09-04T11:57:54.442Z,31.00
2022-09-04T12:00:21.584Z,31.50
2022-09-04T12:03:09.734Z,32.50
2022-09-04T12:05:50.112Z,31.60
2022-09-04T12:08:31.896Z,30.70
2022-09-04T12:11:18.598Z,30.20
2022-09-04T12:14:03.731Z,29.30
2022-09-04T12:17:11.814Z,31.30
2022-09-04T12:19:59.784Z,30.20
2022-09-04T12:22:44.651Z,29.80
2022-09-04T12:25:42.469Z,30.30
2022-09-04T12:28:34.769Z,29.40
2022-09-04T12:31:22.688Z,29.40
2022-09-04T12:34:09.656Z,28.10
2022-09-04T12:37:11.436Z,27.10
2022-09-04T12:40:31.626Z,26.00
2022-09-04T12:43:24.578Z,25.90
2022-09-04T12:46:00.549Z,25.90
2022-09-04T12:48:59.683Z,26.20
2022-09-04T12:51:36.600Z,25.90
2022-09-04T12:54:24.970Z,24.20
2022-09-04T12:57:20.588Z,24.30
2022-09-04T13:00:01.847Z,24.00
2022-09-04T13:02:40.172Z,25.00
2022-09-04T13:05:26.963Z,25.10
2022-09-04T13:08:05.925Z,25.50
2022-09-04T13:10:46.664Z,25.20
2022-09-04T13:13:42.833Z,24.90
2022-09-04T13:16:17.304Z,24.50
2022-09-04T13:18:58.688Z,23.60
2022-09-04T13:21:41.724Z,23.90
2022-09-04T13:24:51.210Z,25.00
2022-09-04T13:27:30.194Z,25.40
2022-09-04T13:30:03.002Z,25.40
2022-09-04T13:32:43.501Z,25.60
2022-09-04T13:35:22.278Z,25.90
2022-09-04T13:38:07.888Z,26.30
2022-09-04T13:40:37.343Z,26.20
2022-09-04T13:44:05.672Z,26.40
2022-09-04T13:46:44.162Z,26.60
2022-09-04T13:49:16.429Z,26.70
2022-09-04T13:51:59.488Z,26.60
2022-09-04T13:54:43.952Z,26.20
2022-09-04T13:57:17.895Z,26.10
2022-09-04T13:59:49.725Z,25.60
2022-09-04T14:02:25.121Z,26.00
2022-09-04T14:04:56.596Z,26.30
2022-09-04T14:07:29.735Z,26.30
2022-09-04T14:10:01.063Z,26.30
2022-09-04T14:12:54.153Z,26.40
2022-09-04T14:15:33.022Z,26.40
2022-09-04T14:18:27.407Z,26.10
2022-09-04T14:21:00.999Z,26.10
2022-09-04T14:23:54.323Z,26.60
2022-09-04T14:26:47.384Z,27.00
2022-09-04T14:29:26.382Z,25.90
2022-09-04T14:32:28.309Z,26.90
2022-09-04T14:35:10.447Z,26.40
2022-09-04T14:38:00.449Z,27.10
2022-09-04T14:40:33.875Z,27.40
2022-09-04T14:43:09.395Z,27.00
2022-09-04T14:46:02.536Z,26.10
2022-09-04T14:48:32.036Z,26.40
2022-09-04T14:51:16.113Z,26.90
2022-09-04T14:53:49.497Z,26.90
2022-09-04T14:56:27.200Z,26.80
2022-09-04T14:59:18.461Z,25.70
2022-09-04T15:02:04.930Z,24.80
2022-09-04T15:04:46.327Z,25.60
2022-09-04T15:07:21.167Z,25.90
2022-09-04T15:09:50.007Z,25.60
2022-09-04T15:12:32.437Z,26.00
2022-09-04T15:15:14.377Z,26.00
2022-09-04T15:17:51.446Z,25.90
2022-09-04T15:20:22.908Z,26.10
2022-09-04T15:23:06.441Z,25.80
2022-09-04T15:25:59.307Z,26.00
2022-09-04T15:28:57.364Z,26.30
2022-09-04T15:31:38.221Z,26.80
2022-09-04T15:34:09.476Z,27.40
2022-09-04T15:36:37.901Z,27.30
2022-09-04T15:39:09.969Z,27.40
2022-09-04T15:41:49.911Z,27.60
2022-09-04T15:44:40.427Z,28.00
2022-09-04T15:47:45.691Z,27.70
2022-09-04T15:50:26.507Z,27.50
2022-09-04T15:53:12.855Z,27.70
2022-09-04T15:55:42.698Z,27.50
2022-09-04T15:58:24.041Z,27.70
2022-09-04T16:01:13.285Z,27.10
2022-09-04T16:03:53.628Z,27.80
2022-09-04T16:06:32.329Z,27.00
2022-09-04T16:09:08.404Z,27.10
2022-09-04T16:11:45.545Z,27.20
2022-09-04T16:14:21.482Z,27.30
2022-09-04T16:17:01.095Z,27.50
2022-09-04T16:19:39.862Z,28.20
2022-09-04T16:22:21.724Z,28.50
2022-09-04T16:24:54.715Z,28.80
2022-09-04T16:27:28.177Z,28.90
2022-09-04T16:30:04.314Z,28.60
2022-09-04T16:32:34.146Z,28.80
2022-09-04T16:35:12.461Z,28.80
2022-09-04T16:37:44.833Z,28.80
2022-09-04T16:40:20.671Z,29.00
2022-09-04T16:42:50.198Z,29.10
2022-09-04T16:45:39.884Z,29.40
2022-09-04T16:48:14.507Z,29.40
2022-09-04T16:51:09.851Z,29.00
2022-09-04T16:54:23.226Z,29.10
2022-09-04T16:57:13.492Z,28.80
2022-09-04T16:59:46.141Z,28.30
2022-09-04T17:02:43.796Z,28.30
2022-09-04T17:05:41.410Z,28.50
2022-09-04T17:08:08.100Z,28.70
2022-09-04T17:10:57.936Z,28.80
2022-09-04T17:13:37.263Z,28.70
2022-09-04T17:16:13.416Z,28.70
2022-09-04T17:18:47.319Z,28.80
2022-09-04T17:26:57.630Z,29.00
2022-09-04T17:29:11.747Z,29.10
2022-09-04T17:29:17.341Z,28.90
2022-09-04T17:31:13.560Z,29.00
2022-09-04T17:40:35.106Z,29.00
2022-09-04T17:40:40.958Z,29.10
2022-09-04T17:40:47.892Z,29.20
2022-09-04T17:43:22.418Z,29.40
2022-09-04T17:45:59.363Z,29.70
2022-09-04T17:48:39.716Z,30.20
2022-09-04T17:51:09.697Z,30.80
2022-09-04T17:53:45.616Z,31.10
2022-09-04T17:56:28.140Z,33.00
2022-09-04T17:59:00.985Z,33.80
2022-09-04T18:01:37.055Z,33.90
2022-09-04T18:04:31.395Z,34.30
2022-09-04T18:07:31.725Z,34.70
2022-09-04T18:10:23.285Z,35.40
2022-09-04T18:13:06.858Z,36.40
2022-09-04T18:15:43.034Z,36.90
2022-09-04T18:18:18.181Z,37.80
2022-09-04T18:20:59.074Z,37.50
2022-09-04T18:23:51.474Z,38.70
2022-09-04T18:26:40.771Z,39.20
2022-09-04T18:30:42.917Z,39.70
2022-09-04T18:37:08.388Z,40.10
2022-09-04T18:37:21.166Z,41.00
2022-09-04T18:39:09.184Z,42.40
2022-09-04T18:46:41.269Z,43.50
2022-09-04T18:50:33.316Z,45.60
2022-09-04T18:50:46.484Z,46.50
2022-09-04T18:51:12.645Z,47.30
2022-09-04T18:53:43.431Z,48.90
2022-09-04T18:56:29.479Z,49.90
2022-09-04T18:59:07.841Z,50.40
2022-09-04T19:02:02.389Z,50.70
2022-09-04T19:04:41.523Z,51.00
2022-09-04T19:07:27.316Z,52.20
2022-09-04T19:10:18.844Z,52.60
2022-09-04T19:12:53.655Z,53.70
2022-09-04T19:15:36.873Z,54.40
2022-09-04T19:18:15.390Z,55.30
2022-09-04T19:21:08.032Z,55.10
2022-09-04T19:23:43.656Z,55.30
2022-09-04T19:26:35.335Z,54.60
2022-09-04T19:29:19.848Z,54.00
2022-09-04T19:32:08.450Z,53.50
2022-09-04T19:34:56.602Z,53.30
2022-09-04T19:41:10.576Z,53.50
2022-09-04T19:46:04.666Z,53.60
2022-09-04T19:46:18.950Z,53.70
2022-09-04T19:47:27.202Z,53.90
2022-09-04T19:53:21.350Z,54.40
2022-09-04T19:53:35.413Z,54.60
2022-09-04T19:57:32.091Z,54.50
2022-09-04T19:59:45.979Z,55.00
2022-09-04T20:02:20.475Z,55.00
2022-09-04T20:04:49.742Z,55.40
2022-09-04T20:07:43.385Z,55.60
2022-09-04T20:10:21.397Z,55.60
2022-09-04T20:12:55.597Z,55.80
2022-09-04T20:15:26.918Z,56.20
2022-09-04T20:18:20.257Z,56.60
2022-09-04T20:21:04.108Z,57.10
2022-09-04T20:23:40.080Z,57.60
2022-09-04T20:26:30.905Z,58.10
2022-09-04T20:29:27.424Z,58.70
2022-09-04T20:32:16.982Z,59.30
2022-09-04T20:34:59.498Z,60.00
2022-09-04T20:37:45.425Z,60.60
2022-09-04T20:40:32.023Z,62.50
2022-09-04T20:43:33.438Z,62.20
2022-09-04T20:48:49.710Z,63.00
2022-09-04T20:52:52.231Z,63.70
2022-09-04T20:52:54.739Z,64.50
2022-09-04T20:55:03.106Z,64.70
2022-09-04T21:03:13.457Z,65.00
2022-09-04T21:03:19.733Z,65.60
2022-09-04T21:04:04.969Z,65.80
2022-09-04T21:06:40.668Z,66.00
2022-09-04T21:09:55.065Z,66.40
2022-09-04T21:12:25.481Z,67.10
2022-09-04T21:15:04.229Z,67.60
2022-09-04T21:17:41.777Z,68.10
2022-09-04T21:20:48.563Z,68.50
2022-09-04T21:24:12.573Z,69.10
2022-09-04T21:26:39.462Z,69.50
2022-09-04T21:29:18.474Z,69.70
2022-09-04T21:32:13.996Z,70.90
2022-09-04T21:35:09.093Z,70.40
2022-09-04T21:38:17.590Z,70.30
2022-09-04T21:41:05.323Z,70.50
2022-09-04T21:44:03.000Z,70.40
2022-09-04T21:46:32.742Z,70.70
2022-09-04T21:48:59.955Z,70.70
2022-09-04T21:52:04.688Z,71.00
2022-09-04T21:55:58.094Z,71.30
2022-09-04T22:02:29.912Z,71.60
2022-09-04T22:02:39.683Z,72.00
2022-09-04T22:05:11.889Z,71.70
2022-09-04T22:09:24.223Z,72.50
2022-09-04T22:13:42.621Z,72.60
2022-09-04T22:14:06.228Z,72.60
2022-09-04T22:16:50.060Z,72.70
2022-09-04T22:19:42.796Z,73.30
2022-09-04T22:22:27.947Z,72.60
2022-09-04T22:25:16.254Z,72.90
2022-09-04T22:28:08.957Z,73.00
2022-09-04T22:31:04.187Z,73.20
2022-09-04T22:34:14.933Z,73.70
2022-09-04T22:37:30.990Z,73.70
2022-09-04T22:40:36.347Z,74.10
2022-09-04T22:43:25.832Z,75.50
2022-09-04T22:46:19.610Z,76.20
2022-09-04T22:49:33.312Z,76.00
2022-09-04T22:52:11.177Z,76.40
2022-09-04T22:54:59.642Z,76.30
2022-09-04T22:58:00.709Z,76.30
2022-09-04T23:00:27.669Z,76.50
2022-09-04T23:03:10.044Z,76.30
2022-09-04T23:06:32.548Z,76.20
2022-09-04T23:13:47.863Z,76.10
2022-09-04T23:14:01.500Z,76.40
2022-09-04T23:15:08.545Z,76.50
2022-09-04T23:17:35.622Z,76.50
2022-09-04T23:26:37.082Z,76.50
2022-09-04T23:26:58.541Z,76.60
2022-09-04T23:26:59.346Z,76.40
2022-09-04T23:29:48.981Z,74.70
2022-09-04T23:32:36.993Z,75.10
2022-09-04T23:35:14.982Z,75.30
2022-09-04T23:38:20.047Z,75.00
2022-09-04T23:41:04.113Z,74.40
2022-09-04T23:43:33.982Z,74.40
2022-09-04T23:46:19.309Z,75.10
2022-09-04T23:48:46.068Z,75.40
2022-09-04T23:51:34.464Z,76.40
2022-09-04T23:54:25.714Z,76.60
2022-09-04T23:57:26.525Z,77.10
